Decoded Metar for KPUB (PUEBLO MEMORIAL in CO, USA) (IATA:PUB) | Meteo·Mobile Aviation Weather
aviador You're here:

KPUB Decoded Metar

PUEBLO MEMORIAL in CO, USA
Report Time2019-03-21 15:53:00
UTC Time2019-03-21 16:33:17
Flight Rules vfr VFR
WindCalm
Visibility9999 m
Phenomena:N/A
Clouds:N/A
Expected CloudBase > 4,000 ft AGL from Temp-Dew spread
CeilingNone
Temp06°C (ISA 0)
Dew Point-4°C (49% RH)
AAT3.5°C
QNH1024 hPa
Density Alt4,390 ft
Elevation4,659 ft
Report Wrong Elevation
Raw Report
KPUB 211553Z 00000KT 10SM CLR 06/M04 A3023 RMK AO2 SLP234
T00561039=

Extra information for KPUB:More info

Metar Taf Metar & Taf Last 4 Metars F.Rules Stats Wind Profile Meteogram Temp Stats Airport Information Weather charts Add Link Nearby VenuesMetar ALERT Operation Metar Decoded Social comments

AIRNAV info for KPUB